Time;durP1;ratioP1;P1;durP2;ratioP2;P2;SDS_P1;SDS_P2;PMS_P1;PMS_P2;Temp;Humidity;BMP_temperature;BMP_pressure;BME280_temperature;BME280_humidity;BME280_pressure;Samples;Min_cycle;Max_cycle;Signal;HPM_P1;HPM_P2
2022/05/02 00:00:43;;;;;;;;;;;;;;;;;;5114707;27;1295;-71
2022/05/02 00:03:09;;;;;;;;;;;;;;;;;;5132876;27;804;-71
2022/05/02 00:05:34;;;;;;;;;;;;;;;;;;5131554;27;1217;-72
2022/05/02 00:08:00;;;;;;;;;;;;;;;;;;5132626;27;927;-72
2022/05/02 00:10:25;;;;;;;;;;;;;;;;;;5131449;27;1210;-72
2022/05/02 00:12:51;;;;;;;;;;;;;;;;;;5131333;27;1961;-72
2022/05/02 00:15:16;;;;;;;;;;;;;;;;;;5131325;27;1274;-72
2022/05/02 00:17:57;;;;;;;;;;;;;;;;;;5132645;27;804;-72
2022/05/02 00:20:26;;;;;;;;;;;;;;;;;;5133015;27;836;-72
2022/05/02 00:22:51;;;;;;;;;;;;;;;;;;5131518;27;1430;-72
2022/05/02 00:25:17;;;;;;;;;;;;;;;;;;5130799;27;1274;-72
2022/05/02 00:27:42;;;;;;;;;;;;;;;;;;5132932;27;757;-72
2022/05/02 00:30:09;;;;;;;;;;;;;;;;;;5131514;27;761;-72
2022/05/02 00:32:34;;;;;;;;;;;;;;;;;;5132179;27;1988;-72
2022/05/02 00:34:59;;;;;;;;;;;;;;;;;;5132256;27;856;-72
2022/05/02 00:37:24;;;;;;;;;;;;;;;;;;5130504;27;1391;-72
2022/05/02 00:39:50;;;;;;;;;;;;;;;;;;5131456;27;1029;-72
2022/05/02 00:42:15;;;;;;;;;;;;;;;;;;5132446;27;805;-73
2022/05/02 00:44:41;;;;;;;;;;;;;;;;;;5131136;27;1162;-72
2022/05/02 00:47:07;;;;;;;;;;;;;;;;;;5131713;27;1254;-73
2022/05/02 00:49:32;;;;;;;;;;;;;;;;;;5131653;27;836;-72
2022/05/02 00:51:57;;;;;;;;;;;;;;;;;;5132164;27;1975;-72
2022/05/02 00:54:22;;;;;;;;;;;;;;;;;;5113818;27;1295;-73
2022/05/02 00:56:48;;;;;;;;;;;;;;;;;;5131472;27;1314;-73
2022/05/02 00:59:14;;;;;;;;;;;;;;;;;;5133756;27;799;-73
2022/05/02 01:01:40;;;;;;;;;;;;;;;;;;5134076;27;1300;-73
2022/05/02 01:04:05;;;;;;;;;;;;;;;;;;5134409;27;807;-73
2022/05/02 01:09:14;;;;;;;;;;;;;;;;;;5134985;27;696;-73
2022/05/02 01:11:40;;;;;;;;;;;;;;;;;;5135187;27;911;-73
2022/05/02 01:14:07;;;;;;;;;;;;;;;;;;5134254;28;1956;-73
2022/05/02 01:16:33;;;;;;;;;;;;;;;;;;5132813;28;1285;-73
2022/05/02 01:18:59;;;;;;;;;;;;;;;;;;5136484;27;863;-73
2022/05/02 01:21:29;;;;;;;;;;;;;;;;;;5118943;28;1379;-73
2022/05/02 01:23:57;;;;;;;;;;;;;;;;;;5135119;28;1228;-71
2022/05/02 01:26:22;;;;;;;;;;;;;;;;;;5134953;28;1320;-73
2022/05/02 01:28:58;;;;;;;;;;;;;;;;;;5135579;28;1222;-73
2022/05/02 01:31:23;;;;;;;;;;;;;;;;;;5136301;27;788;-72
2022/05/02 01:33:49;;;;;;;;;;;;;;;;;;5134451;28;1878;-73
2022/05/02 01:36:15;;;;;;;;;;;;;;;;;;5132441;27;848;-72
2022/05/02 01:38:41;;;;;;;;;;;;;;;;;;5132425;27;832;-73
2022/05/02 01:41:07;;;;;;;;;;;;;;;;;;5131444;27;1213;-73
2022/05/02 01:43:33;;;;;;;;;;;;;;;;;;5136307;27;1014;-72
2022/05/02 01:45:58;;;;;;;;;;;;;;;;;;5136120;27;899;-72
2022/05/02 01:48:24;;;;;;;;;;;;;;;;;;5135066;27;832;-73
2022/05/02 01:50:50;;;;;;;;;;;;;;;;;;5134844;27;996;-72
2022/05/02 01:53:15;;;;;;;;;;;;;;;;;;5116519;27;1909;-72
2022/05/02 01:55:40;;;;;;;;;;;;;;;;;;5136136;27;819;-72
2022/05/02 01:58:06;;;;;;;;;;;;;;;;;;5134086;27;1483;-72
2022/05/02 02:00:31;;;;;;;;;;;;;;;;;;5135943;27;785;-72
2022/05/02 02:02:56;;;;;;;;;;;;;;;;;;5136263;27;804;-73
2022/05/02 02:08:06;;;;;;;;;;;;;;;;;;5135846;27;800;-73
2022/05/02 02:10:31;;;;;;;;;;;;;;;;;;5135752;27;793;-72
2022/05/02 02:12:56;;;;;;;;;;;;;;;;;;5136008;27;1913;-72
2022/05/02 02:15:21;;;;;;;;;;;;;;;;;;5133926;27;836;-72
2022/05/02 02:17:47;;;;;;;;;;;;;;;;;;5134035;27;1330;-73
2022/05/02 02:20:13;;;;;;;;;;;;;;;;;;5133834;27;971;-72
2022/05/02 02:22:39;;;;;;;;;;;;;;;;;;5135527;27;906;-72
2022/05/02 02:25:05;;;;;;;;;;;;;;;;;;5135323;27;836;-72
2022/05/02 02:27:31;;;;;;;;;;;;;;;;;;5133605;27;1177;-73
2022/05/02 02:29:56;;;;;;;;;;;;;;;;;;5134037;27;1391;-72
2022/05/02 02:32:21;;;;;;;;;;;;;;;;;;5135127;27;1968;-72
2022/05/02 02:34:47;;;;;;;;;;;;;;;;;;5134194;27;1162;-73
2022/05/02 02:37:12;;;;;;;;;;;;;;;;;;5116495;27;1343;-72
2022/05/02 02:39:37;;;;;;;;;;;;;;;;;;5134393;27;1360;-71
2022/05/02 02:42:03;;;;;;;;;;;;;;;;;;5133717;27;1262;-71
2022/05/02 02:44:28;;;;;;;;;;;;;;;;;;5135245;27;1381;-72
2022/05/02 02:46:53;;;;;;;;;;;;;;;;;;5134118;27;1312;-72
2022/05/02 02:49:18;;;;;;;;;;;;;;;;;;5133743;27;1446;-72
2022/05/02 02:51:44;;;;;;;;;;;;;;;;;;5116348;27;1146;-72
2022/05/02 02:54:09;;;;;;;;;;;;;;;;;;5131997;27;1894;-72
2022/05/02 02:56:35;;;;;;;;;;;;;;;;;;5116162;27;1225;-72
2022/05/02 02:59:00;;;;;;;;;;;;;;;;;;5134690;27;856;-73
2022/05/02 03:01:25;;;;;;;;;;;;;;;;;;5132402;27;1301;-72
2022/05/02 03:03:51;;;;;;;;;;;;;;;;;;5132824;27;1202;-73
2022/05/02 03:06:16;;;;;;;;;;;;;;;;;;5133746;27;893;-72
2022/05/02 03:08:44;;;;;;;;;;;;;;;;;;5134321;27;863;-72
2022/05/02 03:11:10;;;;;;;;;;;;;;;;;;5133041;27;883;-72
2022/05/02 03:13:35;;;;;;;;;;;;;;;;;;5132638;27;2023;-72
2022/05/02 03:16:01;;;;;;;;;;;;;;;;;;5132715;27;879;-72
2022/05/02 03:18:26;;;;;;;;;;;;;;;;;;5115376;27;1407;-72
2022/05/02 03:20:52;;;;;;;;;;;;;;;;;;5112550;27;1413;-72
2022/05/02 03:23:18;;;;;;;;;;;;;;;;;;5111697;28;962;-72
2022/05/02 03:25:43;;;;;;;;;;;;;;;;;;5113353;28;918;-73
2022/05/02 03:28:08;;;;;;;;;;;;;;;;;;5112035;28;1205;-73
2022/05/02 03:30:34;;;;;;;;;;;;;;;;;;5111664;28;1465;-73
2022/05/02 03:32:59;;;;;;;;;;;;;;;;;;5112025;28;1951;-73
2022/05/02 03:35:25;;;;;;;;;;;;;;;;;;5111408;28;1358;-73
2022/05/02 03:37:50;;;;;;;;;;;;;;;;;;5112101;28;1106;-73
2022/05/02 03:40:16;;;;;;;;;;;;;;;;;;5120862;28;1170;-71
2022/05/02 03:42:41;;;;;;;;;;;;;;;;;;5122537;28;1292;-72
2022/05/02 03:45:07;;;;;;;;;;;;;;;;;;5121404;28;1045;-73
2022/05/02 03:47:32;;;;;;;;;;;;;;;;;;5129821;27;1152;-72
2022/05/02 03:49:57;;;;;;;;;;;;;;;;;;5132116;27;1117;-72
2022/05/02 03:52:23;;;;;;;;;;;;;;;;;;5114964;27;1931;-72
2022/05/02 03:54:48;;;;;;;;;;;;;;;;;;5133562;27;1299;-72
2022/05/02 03:57:13;;;;;;;;;;;;;;;;;;5132227;27;1098;-72
2022/05/02 03:59:39;;;;;;;;;;;;;;;;;;5132040;27;1135;-72
2022/05/02 04:02:04;;;;;;;;;;;;;;;;;;5133856;27;812;-72
2022/05/02 04:04:29;;;;;;;;;;;;;;;;;;5132195;27;1253;-72
2022/05/02 04:06:55;;;;;;;;;;;;;;;;;;5132713;27;904;-72
2022/05/02 04:09:20;;;;;;;;;;;;;;;;;;5133688;27;840;-71
2022/05/02 04:11:45;;;;;;;;;;;;;;;;;;5115541;27;1156;-72
2022/05/02 04:14:10;;;;;;;;;;;;;;;;;;5133348;27;1906;-72
2022/05/02 04:16:36;;;;;;;;;;;;;;;;;;5115032;27;1301;-72
2022/05/02 04:19:01;;;;;;;;;;;;;;;;;;5131634;27;1134;-73
2022/05/02 04:21:26;;;;;;;;;;;;;;;;;;5131785;27;1157;-72
2022/05/02 04:23:51;;;;;;;;;;;;;;;;;;5132326;27;833;-72
2022/05/02 04:26:17;;;;;;;;;;;;;;;;;;5131441;27;1460;-73
2022/05/02 04:28:42;;;;;;;;;;;;;;;;;;5131885;27;967;-71
2022/05/02 04:31:07;;;;;;;;;;;;;;;;;;5131561;27;828;-73
2022/05/02 04:33:32;;;;;;;;;;;;;;;;;;5114081;27;1909;-71
2022/05/02 04:35:58;;;;;;;;;;;;;;;;;;5132876;27;1078;-72
2022/05/02 04:38:24;;;;;;;;;;;;;;;;;;5114332;27;1130;-72
2022/05/02 04:40:49;;;;;;;;;;;;;;;;;;5131499;27;1219;-73
2022/05/02 04:43:14;;;;;;;;;;;;;;;;;;5132289;27;848;-73
2022/05/02 04:45:40;;;;;;;;;;;;;;;;;;5114220;27;1226;-73
2022/05/02 04:48:05;;;;;;;;;;;;;;;;;;5114008;27;1338;-72
2022/05/02 04:50:30;;;;;;;;;;;;;;;;;;5131069;27;946;-72
2022/05/02 04:52:56;;;;;;;;;;;;;;;;;;5132619;27;1961;-72
2022/05/02 04:55:21;;;;;;;;;;;;;;;;;;5132391;27;1135;-72
2022/05/02 04:57:47;;;;;;;;;;;;;;;;;;5132730;27;907;-72
2022/05/02 05:00:14;;;;;;;;;;;;;;;;;;5113808;27;1140;-73
2022/05/02 05:02:39;;;;;;;;;;;;;;;;;;5132212;27;1088;-73
2022/05/02 05:05:05;;;;;;;;;;;;;;;;;;5131065;27;1221;-71
2022/05/02 05:07:31;;;;;;;;;;;;;;;;;;5113558;27;1332;-71
2022/05/02 05:09:56;;;;;;;;;;;;;;;;;;5132744;27;852;-72
2022/05/02 05:12:24;;;;;;;;;;;;;;;;;;5131289;28;1909;-72
2022/05/02 05:17:55;;;;;;;;;;;;;;;;;;5132799;28;709;-72
2022/05/02 05:20:39;;;;;;;;;;;;;;;;;;5117044;28;1555;-72
2022/05/02 05:23:07;;;;;;;;;;;;;;;;;;5111291;28;900;-72
2022/05/02 05:25:38;;;;;;;;;;;;;;;;;;5111461;28;878;-72
2022/05/02 05:28:06;;;;;;;;;;;;;;;;;;5111735;28;939;-73
2022/05/02 05:30:37;;;;;;;;;;;;;;;;;;5112008;28;840;-72
2022/05/02 05:33:21;;;;;;;;;;;;;;;;;;5111760;28;1897;-72
2022/05/02 05:36:01;;;;;;;;;;;;;;;;;;5110047;28;1202;-72
2022/05/02 05:38:47;;;;;;;;;;;;;;;;;;5112044;28;820;-72
2022/05/02 05:41:24;;;;;;;;;;;;;;;;;;5090074;28;1114;-72
2022/05/02 05:43:58;;;;;;;;;;;;;;;;;;5110344;28;1403;-72
2022/05/02 05:46:31;;;;;;;;;;;;;;;;;;5110772;28;1237;-73
2022/05/02 05:49:02;;;;;;;;;;;;;;;;;;5110372;28;1186;-73
2022/05/02 05:51:28;;;;;;;;;;;;;;;;;;5111917;28;1008;-72
2022/05/02 05:54:20;;;;;;;;;;;;;;;;;;5111552;28;1890;-73
2022/05/02 05:57:04;;;;;;;;;;;;;;;;;;5086959;28;1166;-72
2022/05/02 05:59:48;;;;;;;;;;;;;;;;;;5112040;28;758;-72
2022/05/02 06:02:17;;;;;;;;;;;;;;;;;;5111754;28;844;-72
2022/05/02 06:04:43;;;;;;;;;;;;;;;;;;5110078;28;1143;-73
2022/05/02 06:07:09;;;;;;;;;;;;;;;;;;5111079;28;1050;-72
2022/05/02 06:09:36;;;;;;;;;;;;;;;;;;5111184;28;816;-73
2022/05/02 06:12:01;;;;;;;;;;;;;;;;;;5109786;28;1489;-73
2022/05/02 06:14:31;;;;;;;;;;;;;;;;;;5112045;28;1902;-74
2022/05/02 06:19:46;;;;;;;;;;;;;;;;;;5110706;28;645;-74
2022/05/02 06:22:12;;;;;;;;;;;;;;;;;;5110431;28;877;-74
2022/05/02 06:24:39;;;;;;;;;;;;;;;;;;5110749;28;921;-74
2022/05/02 06:27:05;;;;;;;;;;;;;;;;;;5109566;28;1268;-74
2022/05/02 06:29:32;;;;;;;;;;;;;;;;;;5112764;28;1198;-74
2022/05/02 06:32:00;;;;;;;;;;;;;;;;;;5113043;28;1432;-74
2022/05/02 06:34:26;;;;;;;;;;;;;;;;;;5112618;28;1905;-74
2022/05/02 06:37:24;;;;;;;;;;;;;;;;;;5114392;28;812;-74
2022/05/02 06:39:49;;;;;;;;;;;;;;;;;;5079071;28;1361;-74
2022/05/02 06:42:21;;;;;;;;;;;;;;;;;;5113989;28;1029;-74
2022/05/02 06:45:05;;;;;;;;;;;;;;;;;;5112274;28;1103;-74
2022/05/02 06:47:33;;;;;;;;;;;;;;;;;;5114246;28;1041;-74
2022/05/02 06:50:02;;;;;;;;;;;;;;;;;;5114074;27;935;-74
2022/05/02 06:52:39;;;;;;;;;;;;;;;;;;5112265;28;1964;-74
2022/05/02 06:55:24;;;;;;;;;;;;;;;;;;5112533;28;1303;-74
2022/05/02 06:58:14;;;;;;;;;;;;;;;;;;5112995;28;1229;-74
2022/05/02 07:00:47;;;;;;;;;;;;;;;;;;5114246;28;892;-74
2022/05/02 07:03:13;;;;;;;;;;;;;;;;;;5114313;28;990;-74
2022/05/02 07:05:49;;;;;;;;;;;;;;;;;;5114069;28;1217;-74
2022/05/02 07:08:20;;;;;;;;;;;;;;;;;;5114416;28;773;-74
2022/05/02 07:10:50;;;;;;;;;;;;;;;;;;5113132;28;1383;-73
2022/05/02 07:13:40;;;;;;;;;;;;;;;;;;5113108;28;1968;-74
2022/05/02 07:16:24;;;;;;;;;;;;;;;;;;5114721;28;1369;-74
2022/05/02 07:19:00;;;;;;;;;;;;;;;;;;5095806;28;1244;-74
2022/05/02 07:21:28;;;;;;;;;;;;;;;;;;5115011;28;911;-74
2022/05/02 07:24:01;;;;;;;;;;;;;;;;;;5114576;28;958;-74
2022/05/02 07:26:27;;;;;;;;;;;;;;;;;;5113644;28;1142;-74
2022/05/02 07:28:58;;;;;;;;;;;;;;;;;;5096552;28;1304;-74
2022/05/02 07:31:24;;;;;;;;;;;;;;;;;;5112757;28;1459;-74
2022/05/02 07:33:53;;;;;;;;;;;;;;;;;;5111808;28;1893;-74
2022/05/02 07:36:20;;;;;;;;;;;;;;;;;;5113825;28;868;-74
2022/05/02 07:38:58;;;;;;;;;;;;;;;;;;5112883;28;762;-74
2022/05/02 07:41:25;;;;;;;;;;;;;;;;;;5113620;28;845;-75
2022/05/02 07:44:03;;;;;;;;;;;;;;;;;;5112959;28;867;-75
2022/05/02 07:46:37;;;;;;;;;;;;;;;;;;5112219;28;1382;-75
2022/05/02 07:49:03;;;;;;;;;;;;;;;;;;5111671;28;1252;-74
2022/05/02 07:51:29;;;;;;;;;;;;;;;;;;5094596;28;1261;-74
2022/05/02 07:53:56;;;;;;;;;;;;;;;;;;5094225;28;1894;-74
2022/05/02 07:56:22;;;;;;;;;;;;;;;;;;5112196;28;1202;-74
2022/05/02 07:58:50;;;;;;;;;;;;;;;;;;5111884;28;892;-74
2022/05/02 08:01:19;;;;;;;;;;;;;;;;;;5112937;28;808;-74
2022/05/02 08:03:45;;;;;;;;;;;;;;;;;;5113606;28;891;-73
2022/05/02 08:06:28;;;;;;;;;;;;;;;;;;5112156;27;812;-74
2022/05/02 08:09:12;;;;;;;;;;;;;;;;;;5111323;28;1288;-74
2022/05/02 08:12:00;;;;;;;;;;;;;;;;;;5111154;28;1478;-74
2022/05/02 08:14:32;;;;;;;;;;;;;;;;;;5111266;28;1905;-74
2022/05/02 08:17:13;;;;;;;;;;;;;;;;;;5111193;28;1291;-73
2022/05/02 08:19:49;;;;;;;;;;;;;;;;;;5112263;28;856;-73
2022/05/02 08:28:01;;;;;;;;;;;;;;;;;;5111772;28;706;-73
2022/05/02 08:30:30;;;;;;;;;;;;;;;;;;5111217;28;1405;-74
2022/05/02 08:33:05;;;;;;;;;;;;;;;;;;5110496;28;1953;-72
2022/05/02 08:35:50;;;;;;;;;;;;;;;;;;5110836;28;1224;-73
2022/05/02 08:38:22;;;;;;;;;;;;;;;;;;5113572;28;1024;-73
2022/05/02 08:41:06;;;;;;;;;;;;;;;;;;5112181;28;1333;-73
2022/05/02 08:43:34;;;;;;;;;;;;;;;;;;5114450;28;899;-73
2022/05/02 08:46:18;;;;;;;;;;;;;;;;;;5112354;28;1248;-72
2022/05/02 08:51:46;;;;;;;;;;;;;;;;;;5113675;28;928;-73
2022/05/02 08:54:30;;;;;;;;;;;;;;;;;;5113637;28;1961;-73
2022/05/02 08:57:25;;;;;;;;;;;;;;;;;;5112738;28;1541;-73
2022/05/02 08:59:50;;;;;;;;;;;;;;;;;;5076798;28;1114;-72
2022/05/02 09:02:15;;;;;;;;;;;;;;;;;;5113833;28;1142;-72
2022/05/02 09:04:44;;;;;;;;;;;;;;;;;;5112574;28;1399;-73
2022/05/02 09:07:28;;;;;;;;;;;;;;;;;;5113175;28;1264;-73
2022/05/02 09:09:59;;;;;;;;;;;;;;;;;;5113632;28;1284;-73
2022/05/02 09:12:27;;;;;;;;;;;;;;;;;;5114251;28;1906;-73
2022/05/02 09:15:02;;;;;;;;;;;;;;;;;;5110922;28;1340;-73
2022/05/02 09:17:33;;;;;;;;;;;;;;;;;;5111795;28;852;-73
2022/05/02 09:20:01;;;;;;;;;;;;;;;;;;5111121;28;967;-73
2022/05/02 09:22:41;;;;;;;;;;;;;;;;;;5111529;28;899;-73
2022/05/02 09:25:07;;;;;;;;;;;;;;;;;;5110695;28;777;-73
2022/05/02 09:27:33;;;;;;;;;;;;;;;;;;5109295;28;1358;-73
2022/05/02 09:30:01;;;;;;;;;;;;;;;;;;5109679;28;1262;-73
2022/05/02 09:32:38;;;;;;;;;;;;;;;;;;5109152;28;1897;-72
2022/05/02 09:35:05;;;;;;;;;;;;;;;;;;5110974;28;970;-74
2022/05/02 09:37:53;;;;;;;;;;;;;;;;;;5109887;28;1121;-74
2022/05/02 09:40:23;;;;;;;;;;;;;;;;;;5080584;28;1342;-74
2022/05/02 09:43:07;;;;;;;;;;;;;;;;;;5109857;28;1231;-74
2022/05/02 09:51:39;;;;;;;;;;;;;;;;;;5110562;28;889;-73
2022/05/02 09:57:17;;;;;;;;;;;;;;;;;;5110455;28;665;-74
2022/05/02 09:59:46;;;;;;;;;;;;;;;;;;5092887;28;1198;-73
2022/05/02 10:02:21;;;;;;;;;;;;;;;;;;5111530;28;951;-74
2022/05/02 10:05:15;;;;;;;;;;;;;;;;;;5114651;28;761;-74
2022/05/02 10:07:48;;;;;;;;;;;;;;;;;;5099718;28;1273;-74
2022/05/02 10:10:22;;;;;;;;;;;;;;;;;;5112302;28;1244;-74
2022/05/02 10:12:51;;;;;;;;;;;;;;;;;;5112975;28;1917;-73
2022/05/02 10:15:35;;;;;;;;;;;;;;;;;;5114496;28;1131;-77
2022/05/02 10:18:06;;;;;;;;;;;;;;;;;;5115070;28;847;-77
2022/05/02 10:20:42;;;;;;;;;;;;;;;;;;5114996;28;839;-77
2022/05/02 10:23:16;;;;;;;;;;;;;;;;;;5113611;28;1127;-76
2022/05/02 10:25:43;;;;;;;;;;;;;;;;;;5113651;28;1282;-77
2022/05/02 10:28:27;;;;;;;;;;;;;;;;;;5114915;28;1139;-75
2022/05/02 10:30:52;;;;;;;;;;;;;;;;;;5115331;28;792;-74
2022/05/02 10:33:24;;;;;;;;;;;;;;;;;;5112516;28;1875;-75
2022/05/02 10:35:51;;;;;;;;;;;;;;;;;;5113232;28;1377;-74
2022/05/02 10:38:25;;;;;;;;;;;;;;;;;;5114362;28;860;-77
2022/05/02 10:40:51;;;;;;;;;;;;;;;;;;5115717;28;860;-76
2022/05/02 10:43:22;;;;;;;;;;;;;;;;;;5113424;28;1510;-73
2022/05/02 10:45:48;;;;;;;;;;;;;;;;;;5114797;28;1014;-73
2022/05/02 10:48:17;;;;;;;;;;;;;;;;;;5113930;28;950;-74
2022/05/02 10:51:02;;;;;;;;;;;;;;;;;;5113395;28;1241;-74
2022/05/02 10:53:43;;;;;;;;;;;;;;;;;;5113340;28;1893;-74
2022/05/02 10:56:11;;;;;;;;;;;;;;;;;;5114781;28;911;-75
2022/05/02 10:58:38;;;;;;;;;;;;;;;;;;5113676;28;1198;-75
2022/05/02 11:01:06;;;;;;;;;;;;;;;;;;5113222;28;1316;-75
2022/05/02 11:03:50;;;;;;;;;;;;;;;;;;5115162;28;892;-75
2022/05/02 11:06:15;;;;;;;;;;;;;;;;;;5113196;28;1205;-74
2022/05/02 11:08:45;;;;;;;;;;;;;;;;;;5114507;28;888;-74
2022/05/02 11:11:19;;;;;;;;;;;;;;;;;;5113817;28;891;-74
2022/05/02 11:13:51;;;;;;;;;;;;;;;;;;5112302;28;1969;-76
2022/05/02 11:16:22;;;;;;;;;;;;;;;;;;5114193;28;899;-74
2022/05/02 11:22:13;;;;;;;;;;;;;;;;;;5114739;28;653;-78
2022/05/02 11:24:38;;;;;;;;;;;;;;;;;;5092937;28;1048;-75
2022/05/02 11:27:20;;;;;;;;;;;;;;;;;;5113747;28;891;-79
2022/05/02 11:30:06;;;;;;;;;;;;;;;;;;5114107;28;800;-76
2022/05/02 11:32:53;;;;;;;;;;;;;;;;;;5113155;28;1909;-77
2022/05/02 11:35:36;;;;;;;;;;;;;;;;;;5111767;28;1149;-75
2022/05/02 11:38:15;;;;;;;;;;;;;;;;;;5113514;28;820;-74
2022/05/02 11:40:45;;;;;;;;;;;;;;;;;;5112272;28;1124;-75
2022/05/02 11:43:14;;;;;;;;;;;;;;;;;;5111892;28;1210;-75
2022/05/02 11:45:42;;;;;;;;;;;;;;;;;;5112313;28;1256;-76
2022/05/02 11:48:10;;;;;;;;;;;;;;;;;;5113291;28;971;-76
2022/05/02 11:50:46;;;;;;;;;;;;;;;;;;5112093;28;1214;-75
2022/05/02 11:53:14;;;;;;;;;;;;;;;;;;5111706;28;2000;-75
2022/05/02 11:55:40;;;;;;;;;;;;;;;;;;5112011;28;1277;-76
2022/05/02 11:58:09;;;;;;;;;;;;;;;;;;5114065;28;851;-74
2022/05/02 12:00:38;;;;;;;;;;;;;;;;;;5112366;28;1373;-74
2022/05/02 12:03:03;;;;;;;;;;;;;;;;;;5113460;28;1107;-74
2022/05/02 12:05:31;;;;;;;;;;;;;;;;;;5111578;28;1357;-74
2022/05/02 12:07:58;;;;;;;;;;;;;;;;;;5113564;28;856;-73
2022/05/02 12:10:42;;;;;;;;;;;;;;;;;;5113311;28;1123;-75
2022/05/02 12:13:10;;;;;;;;;;;;;;;;;;5113297;28;1965;-73
2022/05/02 12:15:52;;;;;;;;;;;;;;;;;;5112815;28;871;-75
2022/05/02 12:18:17;;;;;;;;;;;;;;;;;;5112594;28;820;-69
2022/05/02 12:20:43;;;;;;;;;;;;;;;;;;5110303;28;1190;-71
2022/05/02 12:23:16;;;;;;;;;;;;;;;;;;5111492;28;1290;-71
2022/05/02 12:25:51;;;;;;;;;;;;;;;;;;5111148;28;1198;-69
2022/05/02 12:28:38;;;;;;;;;;;;;;;;;;5112717;28;979;-72
2022/05/02 12:31:06;;;;;;;;;;;;;;;;;;5109497;28;1344;-73
2022/05/02 12:33:32;;;;;;;;;;;;;;;;;;5111105;28;1965;-76
2022/05/02 12:35:59;;;;;;;;;;;;;;;;;;5110275;28;1204;-76
2022/05/02 12:38:25;;;;;;;;;;;;;;;;;;5092933;28;1227;-76
2022/05/02 12:40:52;;;;;;;;;;;;;;;;;;5111876;28;868;-76
2022/05/02 12:43:29;;;;;;;;;;;;;;;;;;5111340;28;856;-76
2022/05/02 12:45:56;;;;;;;;;;;;;;;;;;5110221;28;1197;-76
2022/05/02 12:48:44;;;;;;;;;;;;;;;;;;5111702;28;918;-76
2022/05/02 12:51:16;;;;;;;;;;;;;;;;;;5105824;28;1427;-76
2022/05/02 12:56:26;;;;;;;;;;;;;;;;;;5111243;28;1099;-76
2022/05/02 13:01:43;;;;;;;;;;;;;;;;;;5110790;28;710;-76
2022/05/02 13:04:14;;;;;;;;;;;;;;;;;;5111588;28;781;-75
2022/05/02 13:06:39;;;;;;;;;;;;;;;;;;5111367;28;859;-75
2022/05/02 13:09:12;;;;;;;;;;;;;;;;;;5111872;28;915;-75
2022/05/02 13:11:38;;;;;;;;;;;;;;;;;;5109899;28;1304;-73
2022/05/02 13:14:04;;;;;;;;;;;;;;;;;;5111102;28;1910;-72
2022/05/02 13:16:34;;;;;;;;;;;;;;;;;;5110890;28;875;-75
2022/05/02 13:19:03;;;;;;;;;;;;;;;;;;5109416;28;1366;-75
2022/05/02 13:21:29;;;;;;;;;;;;;;;;;;5110460;28;951;-77
2022/05/02 13:23:58;;;;;;;;;;;;;;;;;;5111449;28;816;-78
2022/05/02 13:26:33;;;;;;;;;;;;;;;;;;5110003;28;1276;-79
2022/05/02 13:29:05;;;;;;;;;;;;;;;;;;5111056;28;844;-78
2022/05/02 13:31:34;;;;;;;;;;;;;;;;;;5111041;28;859;-75
2022/05/02 13:34:02;;;;;;;;;;;;;;;;;;5110885;28;1901;-75
2022/05/02 13:36:30;;;;;;;;;;;;;;;;;;5110565;28;892;-74
2022/05/02 13:38:57;;;;;;;;;;;;;;;;;;5115171;28;943;-75
2022/05/02 13:41:32;;;;;;;;;;;;;;;;;;5113906;28;1210;-75
2022/05/02 13:44:16;;;;;;;;;;;;;;;;;;5115167;28;915;-73
2022/05/02 13:46:51;;;;;;;;;;;;;;;;;;5114932;28;891;-75
2022/05/02 13:49:29;;;;;;;;;;;;;;;;;;5113213;28;1303;-74
2022/05/02 13:52:15;;;;;;;;;;;;;;;;;;5114705;27;940;-75
2022/05/02 13:54:46;;;;;;;;;;;;;;;;;;5114161;28;1901;-74
2022/05/02 13:57:14;;;;;;;;;;;;;;;;;;5114986;28;828;-76
2022/05/02 13:59:50;;;;;;;;;;;;;;;;;;5114578;27;949;-74
2022/05/02 14:02:48;;;;;;;;;;;;;;;;;;5114890;28;827;-75
2022/05/02 14:05:33;;;;;;;;;;;;;;;;;;5114764;28;817;-75
2022/05/02 14:08:01;;;;;;;;;;;;;;;;;;5098773;28;1202;-75
2022/05/02 14:10:29;;;;;;;;;;;;;;;;;;5114512;28;906;-76
2022/05/02 14:12:54;;;;;;;;;;;;;;;;;;5113592;28;1902;-74
2022/05/02 14:15:20;;;;;;;;;;;;;;;;;;5096788;28;1271;-74
2022/05/02 14:17:47;;;;;;;;;;;;;;;;;;5114049;28;883;-76
2022/05/02 14:20:13;;;;;;;;;;;;;;;;;;5114628;28;832;-75
2022/05/02 14:22:38;;;;;;;;;;;;;;;;;;5113424;28;1279;-76
2022/05/02 14:25:08;;;;;;;;;;;;;;;;;;5114952;28;962;-76
2022/05/02 14:27:33;;;;;;;;;;;;;;;;;;5113438;28;1280;-76
2022/05/02 14:30:01;;;;;;;;;;;;;;;;;;5113190;28;1257;-75
2022/05/02 14:32:39;;;;;;;;;;;;;;;;;;5114425;28;816;-75
2022/05/02 14:35:05;;;;;;;;;;;;;;;;;;5114477;28;840;-75
2022/05/02 14:37:31;;;;;;;;;;;;;;;;;;5114255;28;859;-76
2022/05/02 14:39:57;;;;;;;;;;;;;;;;;;5114126;28;864;-76
2022/05/02 14:42:23;;;;;;;;;;;;;;;;;;5112801;28;836;-76
2022/05/02 14:44:49;;;;;;;;;;;;;;;;;;5112402;28;852;-76
2022/05/02 14:47:16;;;;;;;;;;;;;;;;;;5096490;27;1322;-76
2022/05/02 14:49:41;;;;;;;;;;;;;;;;;;5114612;27;1221;-76
2022/05/02 14:52:17;;;;;;;;;;;;;;;;;;5111965;28;1073;-75
2022/05/02 14:54:44;;;;;;;;;;;;;;;;;;5113185;28;1898;-75
2022/05/02 14:57:12;;;;;;;;;;;;;;;;;;5113153;28;942;-75
2022/05/02 14:59:38;;;;;;;;;;;;;;;;;;5112345;28;1389;-76
2022/05/02 15:02:04;;;;;;;;;;;;;;;;;;5113222;28;892;-75
2022/05/02 15:04:34;;;;;;;;;;;;;;;;;;5113149;28;820;-75
2022/05/02 15:07:00;;;;;;;;;;;;;;;;;;5113678;28;777;-75
2022/05/02 15:12:44;;;;;;;;;;;;;;;;;;5113314;28;634;-75
2022/05/02 15:15:09;;;;;;;;;;;;;;;;;;5111673;28;1197;-75
2022/05/02 15:17:38;;;;;;;;;;;;;;;;;;5111533;28;1273;-76
2022/05/02 15:20:09;;;;;;;;;;;;;;;;;;5112578;28;1206;-73
2022/05/02 15:22:40;;;;;;;;;;;;;;;;;;5111494;28;1339;-76
2022/05/02 15:25:11;;;;;;;;;;;;;;;;;;5113382;28;903;-76
2022/05/02 15:38:47;;;;;;;;;;;;;;;;;;5114720;28;696;-79
2022/05/02 15:41:13;;;;;;;;;;;;;;;;;;5117129;27;1147;-78
2022/05/02 15:43:38;;;;;;;;;;;;;;;;;;5135123;27;828;-78
2022/05/02 15:46:11;;;;;;;;;;;;;;;;;;5134101;27;883;-78
2022/05/02 15:48:38;;;;;;;;;;;;;;;;;;5134781;27;1009;-79
2022/05/02 15:51:16;;;;;;;;;;;;;;;;;;5116626;27;1229;-78
2022/05/02 15:53:42;;;;;;;;;;;;;;;;;;5133539;27;1959;-77
2022/05/02 15:56:14;;;;;;;;;;;;;;;;;;5133260;27;1336;-78
2022/05/02 15:59:02;;;;;;;;;;;;;;;;;;5134769;27;1303;-78
2022/05/02 16:01:37;;;;;;;;;;;;;;;;;;5134824;27;839;-78
2022/05/02 16:04:14;;;;;;;;;;;;;;;;;;5133061;27;1213;-78
2022/05/02 16:06:50;;;;;;;;;;;;;;;;;;5135800;27;934;-78
2022/05/02 16:12:09;;;;;;;;;;;;;;;;;;5133525;27;697;-77
2022/05/02 16:14:41;;;;;;;;;;;;;;;;;;5132518;27;1975;-78
2022/05/02 16:17:08;;;;;;;;;;;;;;;;;;5131222;27;1322;-78
2022/05/02 16:19:34;;;;;;;;;;;;;;;;;;5131510;27;1301;-78
2022/05/02 16:21:59;;;;;;;;;;;;;;;;;;5131735;27;1206;-78
2022/05/02 16:24:28;;;;;;;;;;;;;;;;;;5133157;27;946;-79
2022/05/02 16:26:54;;;;;;;;;;;;;;;;;;5132815;27;832;-79
2022/05/02 16:29:20;;;;;;;;;;;;;;;;;;5114567;27;1764;-78
2022/05/02 16:31:46;;;;;;;;;;;;;;;;;;5131097;27;1665;-79
2022/05/02 16:34:12;;;;;;;;;;;;;;;;;;5132158;27;1909;-79
2022/05/02 16:36:39;;;;;;;;;;;;;;;;;;5132190;27;954;-78
2022/05/02 16:39:05;;;;;;;;;;;;;;;;;;5130961;27;1138;-79
2022/05/02 16:41:30;;;;;;;;;;;;;;;;;;5114028;27;1211;-79
2022/05/02 16:43:56;;;;;;;;;;;;;;;;;;5113859;27;1261;-79
2022/05/02 16:46:22;;;;;;;;;;;;;;;;;;5133209;27;856;-78
2022/05/02 16:48:50;;;;;;;;;;;;;;;;;;5134040;27;863;-78
2022/05/02 16:51:20;;;;;;;;;;;;;;;;;;5134056;27;1042;-79
2022/05/02 16:53:45;;;;;;;;;;;;;;;;;;5130997;27;1889;-79
2022/05/02 16:56:11;;;;;;;;;;;;;;;;;;5130137;27;1240;-78
2022/05/02 16:58:36;;;;;;;;;;;;;;;;;;5132135;27;995;-78
2022/05/02 17:01:12;;;;;;;;;;;;;;;;;;5131756;27;887;-78
2022/05/02 17:03:39;;;;;;;;;;;;;;;;;;5130488;27;1217;-79
2022/05/02 17:06:06;;;;;;;;;;;;;;;;;;5131777;27;936;-78
2022/05/02 17:08:33;;;;;;;;;;;;;;;;;;5130248;27;1232;-79
2022/05/02 17:10:59;;;;;;;;;;;;;;;;;;5130623;27;1413;-79
2022/05/02 17:13:27;;;;;;;;;;;;;;;;;;5112884;28;1894;-78
2022/05/02 17:16:04;;;;;;;;;;;;;;;;;;5132024;27;911;-79
2022/05/02 17:18:31;;;;;;;;;;;;;;;;;;5131804;27;1173;-78
2022/05/02 17:20:57;;;;;;;;;;;;;;;;;;5130034;28;1319;-78
2022/05/02 17:23:29;;;;;;;;;;;;;;;;;;5131941;27;828;-74
2022/05/02 17:25:55;;;;;;;;;;;;;;;;;;5131913;27;911;-73
2022/05/02 17:28:29;;;;;;;;;;;;;;;;;;5131553;27;895;-75
2022/05/02 17:30:55;;;;;;;;;;;;;;;;;;5130273;28;1348;-75
2022/05/02 17:33:20;;;;;;;;;;;;;;;;;;5129775;28;1894;-75
2022/05/02 17:35:47;;;;;;;;;;;;;;;;;;5131588;27;926;-75
2022/05/02 17:38:14;;;;;;;;;;;;;;;;;;5130657;27;955;-75
2022/05/02 17:40:41;;;;;;;;;;;;;;;;;;5129591;27;1267;-75
2022/05/02 17:43:23;;;;;;;;;;;;;;;;;;5129854;27;1256;-75
2022/05/02 17:45:54;;;;;;;;;;;;;;;;;;5131722;27;769;-75
2022/05/02 17:48:20;;;;;;;;;;;;;;;;;;5129778;28;1293;-75
2022/05/02 17:50:47;;;;;;;;;;;;;;;;;;5130228;28;1341;-74
2022/05/02 17:53:17;;;;;;;;;;;;;;;;;;5129322;27;1894;-75
2022/05/02 17:55:43;;;;;;;;;;;;;;;;;;5131317;27;1336;-75
2022/05/02 17:58:09;;;;;;;;;;;;;;;;;;5129885;27;1288;-75
2022/05/02 18:00:35;;;;;;;;;;;;;;;;;;5131374;27;848;-75
2022/05/02 18:03:12;;;;;;;;;;;;;;;;;;5113076;28;1174;-75
2022/05/02 18:05:42;;;;;;;;;;;;;;;;;;5130537;28;1228;-75
2022/05/02 18:08:08;;;;;;;;;;;;;;;;;;5129668;27;1419;-75
2022/05/02 18:10:34;;;;;;;;;;;;;;;;;;5129520;28;1440;-75
2022/05/02 18:13:04;;;;;;;;;;;;;;;;;;5129423;28;1959;-75
2022/05/02 18:15:29;;;;;;;;;;;;;;;;;;5130702;27;919;-74
2022/05/02 18:18:00;;;;;;;;;;;;;;;;;;5131166;27;816;-74
2022/05/02 18:20:27;;;;;;;;;;;;;;;;;;5130890;27;884;-75
2022/05/02 18:23:11;;;;;;;;;;;;;;;;;;5131773;27;910;-74